Farnam, Nebraska
Current Conditions -  °F | °C
As of 8:15 PM on Friday 19 Dec 2014 (Local Time) from KLXN Reporting Station
Haze Haze  
Wind Chill: 24°   Ceiling: Unl
Heat Index: 24°   Visibility: 5mi
Dew Point: 23°   Wind: 0mph
Humidity: 95%   Direction: NA
Pressure: 30.03"   Gusts: NA
Location:  40.71°N, 100.21°W
Report Text: KLXN 200215Z AUTO 00000KT 5SM BR CLR M04/M05 A3003 RMK AO2 T10451052
Loading
Personal Weather Stations






























Interactive Weather Map New forecast layout! Learn more

10-Day Weather Forecast

Advertisements
Track Severe Weather on mobile